createdAt,value
2023-04-01T00:00:07.757Z,67.40
2023-04-01T00:05:17.965Z,67.22
2023-04-01T00:10:22.482Z,66.75
2023-04-01T00:15:27.403Z,66.50
2023-04-01T00:20:33.239Z,65.44
2023-04-01T00:25:37.941Z,66.10
2023-04-01T00:30:42.051Z,66.99
2023-04-01T00:35:48.234Z,66.86
2023-04-01T00:40:52.380Z,67.00
2023-04-01T00:45:56.461Z,67.34
2023-04-01T00:51:05.290Z,67.85
2023-04-01T00:56:16.189Z,67.31
2023-04-01T01:01:22.935Z,67.13
2023-04-01T01:06:41.135Z,66.41
2023-04-01T01:11:50.515Z,66.37
2023-04-01T01:17:01.622Z,67.79
2023-04-01T01:22:39.035Z,68.36
2023-04-01T01:27:54.099Z,69.10
2023-04-01T01:33:13.606Z,68.48
2023-04-01T01:38:22.474Z,67.97
2023-04-01T01:43:42.843Z,69.08
2023-04-01T01:48:49.018Z,68.68
2023-04-01T01:53:54.539Z,67.77
2023-04-01T01:59:03.012Z,67.37
2023-04-01T02:04:07.773Z,68.93
2023-04-01T02:09:13.702Z,67.09
2023-04-01T02:14:21.260Z,67.60
2023-04-01T02:19:33.294Z,67.50
2023-04-01T02:24:42.123Z,66.99
2023-04-01T02:29:46.280Z,68.00
2023-04-01T02:34:50.608Z,68.34
2023-04-01T02:39:57.004Z,67.90
2023-04-01T02:45:01.596Z,67.65
2023-04-01T02:50:07.341Z,67.54
2023-04-01T02:55:14.004Z,66.75
2023-04-01T03:00:19.536Z,66.81
2023-04-01T03:05:26.206Z,66.37
2023-04-01T03:10:32.565Z,67.44
2023-04-01T03:15:37.005Z,69.00
2023-04-01T03:20:41.446Z,69.22
2023-04-01T03:25:46.922Z,69.88
2023-04-01T03:30:52.089Z,68.51
2023-04-01T03:35:56.731Z,69.07
2023-04-01T03:41:03.677Z,68.67
2023-04-01T03:46:11.089Z,69.39
2023-04-01T03:51:16.477Z,70.05
2023-04-01T03:56:22.400Z,70.73
2023-04-01T04:01:27.876Z,70.53
2023-04-01T04:06:34.926Z,69.63
2023-04-01T04:11:41.211Z,69.40
2023-04-01T04:16:45.608Z,69.20
2023-04-01T04:21:49.904Z,71.66
2023-04-01T04:26:57.135Z,72.21
2023-04-01T04:32:01.409Z,71.79
2023-04-01T04:37:06.183Z,71.21
2023-04-01T04:42:15.682Z,71.74
2023-04-01T04:47:20.237Z,70.80
2023-04-01T04:52:24.575Z,71.95
2023-04-01T04:57:30.194Z,70.73
2023-04-01T05:02:37.001Z,70.08
2023-04-01T05:07:41.201Z,71.03
2023-04-01T05:12:46.658Z,71.68
2023-04-01T05:17:57.946Z,72.71
2023-04-01T05:23:03.262Z,71.65
2023-04-01T05:28:08.819Z,70.56
2023-04-01T05:33:14.186Z,70.21
2023-04-01T05:38:18.765Z,69.36
2023-04-01T05:43:26.627Z,68.21
2023-04-01T05:48:33.368Z,68.36
2023-04-01T05:53:37.986Z,66.54
2023-04-01T05:58:43.665Z,67.54
2023-04-01T06:03:49.889Z,67.22
2023-04-01T06:08:55.953Z,67.49
2023-04-01T06:14:14.448Z,68.22
2023-04-01T06:19:31.682Z,68.25
2023-04-01T06:25:09.546Z,68.35
2023-04-01T06:30:33.657Z,69.20
2023-04-01T06:36:01.281Z,69.09
2023-04-01T06:41:25.238Z,67.43
2023-04-01T06:46:46.281Z,66.21
2023-04-01T06:52:21.413Z,65.28
2023-04-01T06:57:49.196Z,64.37
2023-04-01T07:02:59.277Z,62.63
2023-04-01T07:08:08.192Z,61.62
2023-04-01T07:13:19.478Z,60.26
2023-04-01T07:18:44.174Z,59.98
2023-04-01T07:23:49.767Z,59.40
2023-04-01T07:29:16.800Z,58.87
2023-04-01T07:34:38.042Z,58.15
2023-04-01T07:39:51.264Z,58.48
2023-04-01T07:45:21.202Z,57.51
2023-04-01T07:50:31.078Z,56.57
2023-04-01T07:55:44.627Z,56.00
2023-04-01T08:00:55.489Z,57.14
2023-04-01T08:06:16.848Z,56.32
2023-04-01T08:11:34.694Z,54.78
2023-04-01T08:17:05.069Z,51.02
2023-04-01T08:22:25.757Z,49.10
2023-04-01T08:27:37.317Z,48.94
2023-04-01T08:32:45.083Z,50.49
2023-04-01T08:37:53.714Z,53.54
2023-04-01T08:43:11.382Z,55.08
2023-04-01T08:48:38.913Z,55.83
2023-04-01T08:54:42.601Z,56.34
2023-04-01T09:00:04.606Z,55.49
2023-04-01T09:05:46.071Z,54.99
2023-04-01T09:11:09.720Z,53.74
2023-04-01T09:16:57.307Z,52.89
2023-04-01T09:22:20.508Z,51.74
2023-04-01T09:27:29.816Z,50.08
2023-04-01T09:33:04.952Z,49.03
2023-04-01T09:38:24.363Z,48.01
2023-04-01T09:43:32.243Z,47.22
2023-04-01T09:49:11.027Z,46.20
2023-04-01T09:54:37.424Z,46.94
2023-04-01T10:00:27.434Z,47.13
2023-04-01T10:06:20.293Z,47.59
2023-04-01T10:11:47.982Z,47.19
2023-04-01T10:17:11.167Z,46.79
2023-04-01T10:22:47.755Z,47.11
2023-04-01T10:28:24.301Z,47.08
2023-04-01T10:34:12.895Z,46.70
2023-04-01T10:40:15.688Z,47.04
2023-04-01T10:46:05.274Z,48.38
2023-04-01T10:51:51.247Z,48.07
2023-04-01T10:57:33.660Z,48.54
2023-04-01T11:03:43.489Z,45.24
2023-04-01T11:09:45.454Z,43.66
2023-04-01T11:15:17.663Z,42.48
2023-04-01T11:21:05.817Z,42.77
2023-04-01T11:26:14.309Z,42.65
2023-04-01T11:31:53.218Z,42.36
2023-04-01T11:37:16.448Z,42.48
2023-04-01T11:42:46.631Z,41.49
2023-04-01T11:48:34.884Z,40.78
2023-04-01T11:53:51.811Z,41.01
2023-04-01T11:59:12.619Z,41.82
2023-04-01T12:04:58.092Z,42.92
2023-04-01T12:10:15.666Z,45.82
2023-04-01T12:15:30.024Z,49.86
2023-04-01T12:20:46.054Z,53.11
2023-04-01T12:26:22.049Z,55.11
2023-04-01T12:31:37.966Z,56.40
2023-04-01T12:36:59.331Z,57.39
2023-04-01T12:42:16.916Z,57.43
2023-04-01T12:47:48.022Z,57.82
2023-04-01T12:53:04.340Z,69.75
2023-04-01T12:58:53.964Z,78.42
2023-04-01T13:04:25.138Z,80.73
2023-04-01T13:09:44.675Z,82.64
2023-04-01T13:15:11.776Z,83.69
2023-04-01T13:20:23.253Z,84.41
2023-04-01T13:25:36.451Z,86.78
2023-04-01T13:30:51.923Z,85.29
2023-04-01T13:36:05.017Z,85.54
2023-04-01T13:41:21.451Z,83.86
2023-04-01T13:46:43.782Z,84.58
2023-04-01T13:52:16.505Z,83.81
2023-04-01T13:57:38.606Z,79.48
2023-04-01T14:02:58.921Z,79.92
2023-04-01T14:08:15.715Z,79.98
2023-04-01T14:13:31.390Z,81.17
2023-04-01T14:19:00.547Z,82.01
2023-04-01T14:24:31.972Z,84.50
2023-04-01T14:29:44.820Z,86.58
2023-04-01T14:35:08.271Z,85.81
2023-04-01T14:40:44.006Z,83.15
2023-04-01T14:46:25.932Z,80.26
2023-04-01T14:51:38.336Z,78.53
2023-04-01T14:56:44.718Z,76.83
2023-04-01T15:01:58.398Z,77.29
2023-04-01T15:07:52.119Z,79.31
2023-04-01T15:13:07.673Z,75.21
2023-04-01T15:18:19.355Z,75.99
2023-04-01T15:23:38.558Z,72.94
2023-04-01T15:28:55.252Z,73.66
2023-04-01T15:34:20.244Z,77.21
2023-04-01T15:39:39.660Z,78.86
2023-04-01T15:45:04.046Z,77.82
2023-04-01T15:50:40.472Z,77.09
2023-04-01T15:55:52.980Z,75.37
2023-04-01T16:01:06.763Z,73.81
2023-04-01T16:06:36.563Z,80.80
2023-04-01T16:11:52.711Z,81.06
2023-04-01T16:17:17.200Z,82.66
2023-04-01T16:22:27.730Z,81.32
2023-04-01T16:27:44.035Z,82.24
2023-04-01T16:32:55.664Z,81.54
2023-04-01T16:38:08.334Z,82.66
2023-04-01T16:43:22.272Z,85.05
2023-04-01T16:48:37.432Z,83.00
2023-04-01T16:53:45.236Z,84.37
2023-04-01T16:59:05.134Z,86.68
2023-04-01T17:04:19.555Z,90.24
2023-04-01T17:09:37.474Z,89.78
2023-04-01T17:14:51.549Z,86.39
2023-04-01T17:20:07.744Z,85.16
2023-04-01T17:25:28.582Z,85.39
2023-04-01T17:30:41.224Z,86.39
2023-04-01T17:35:55.763Z,84.85
2023-04-01T17:41:14.348Z,83.73
2023-04-01T17:52:01.612Z,83.84
2023-04-01T17:57:29.494Z,86.35
2023-04-01T18:02:48.549Z,89.42
2023-04-01T18:08:15.337Z,90.87
2023-04-01T18:13:56.144Z,90.56
2023-04-01T18:19:11.629Z,90.89
2023-04-01T18:24:26.260Z,92.24
2023-04-01T18:29:41.584Z,91.33
2023-04-01T18:34:57.167Z,90.80
2023-04-01T18:40:15.230Z,90.35
2023-04-01T18:45:25.096Z,89.10
2023-04-01T18:50:35.492Z,87.40
2023-04-01T18:55:45.801Z,87.72
2023-04-01T19:00:57.280Z,87.42
2023-04-01T19:06:11.251Z,88.93
2023-04-01T19:11:26.390Z,88.50
2023-04-01T19:16:45.602Z,86.28
2023-04-01T19:21:59.197Z,86.67
2023-04-01T19:27:16.878Z,85.20
2023-04-01T19:32:33.164Z,84.49
2023-04-01T19:37:42.454Z,82.44
2023-04-01T19:42:56.118Z,81.33
2023-04-01T19:48:12.511Z,78.57
2023-04-01T19:53:28.397Z,79.98
2023-04-01T19:58:45.190Z,78.91
2023-04-01T20:03:53.779Z,78.93
2023-04-01T20:09:20.697Z,77.61
2023-04-01T20:14:35.283Z,76.29
2023-04-01T20:19:44.093Z,78.29
2023-04-01T20:24:49.507Z,79.71
2023-04-01T20:30:23.983Z,77.99
2023-04-01T20:35:47.646Z,76.97
2023-04-01T20:40:53.474Z,77.58
2023-04-01T20:46:09.767Z,77.12
2023-04-01T20:51:16.937Z,77.34
2023-04-01T20:56:57.140Z,76.16
2023-04-01T21:02:16.356Z,75.68
2023-04-01T21:07:31.138Z,75.87
2023-04-01T21:12:45.733Z,77.75
2023-04-01T21:18:06.751Z,77.43
2023-04-01T21:23:36.957Z,77.11
2023-04-01T21:28:54.136Z,78.10
2023-04-01T21:34:39.491Z,78.73
2023-04-01T21:40:07.924Z,78.59
2023-04-01T21:45:40.529Z,77.68
2023-04-01T21:51:12.671Z,77.17
2023-04-01T21:56:59.089Z,76.78
2023-04-01T22:02:50.613Z,75.63
2023-04-01T22:08:05.646Z,75.66
2023-04-01T22:13:19.071Z,75.53
2023-04-01T22:18:35.192Z,75.32
2023-04-01T22:23:47.605Z,75.21
2023-04-01T22:29:01.422Z,75.39
2023-04-01T22:34:13.957Z,75.80
2023-04-01T22:39:37.515Z,76.38
2023-04-01T22:44:55.143Z,76.17
2023-04-01T22:50:06.766Z,75.60
2023-04-01T22:55:17.872Z,75.51
2023-04-01T23:00:28.243Z,74.97
2023-04-01T23:05:37.396Z,74.65
2023-04-01T23:10:48.627Z,75.31
2023-04-01T23:15:56.648Z,74.07
2023-04-01T23:21:12.733Z,74.41
2023-04-01T23:26:36.048Z,74.45
2023-04-01T23:31:41.779Z,75.26
2023-04-01T23:36:50.145Z,74.04
2023-04-01T23:41:59.270Z,74.10
2023-04-01T23:47:05.728Z,73.49
2023-04-01T23:52:16.753Z,73.57
2023-04-01T23:57:26.709Z,73.97
